Strona główna
METAR-TAF:

METAR-TAF

Lotnisko :

Lancaster Airport

Lancaster, Pensylwania, Stany Zjednoczone

Szerokość geograficzna: 40-07-13N, Długość geograficzna: 076-17-40W, wysokość: 123 m

Aktualna obserwacja pogody

Raport powstał 36 minut temu, godzina 01:53 UTC
Wiatr 6 kt od południe
Temperatura 16°C
Wilgotność 59%
Ciśnienie 1016 hPa
Widzialność: 16.1 km
Rozproszone chmury na wysokości 7500 ft
Przerywane chmury na wysokości 10000 ft

METAR: KLNS 060153Z 18006KT 10SM SCT075 BKN100 16/08 A2999 RMK AO2 SLP155 T01560078

czas: 22:29 (02:29 UTC)

Prognoza

Raport powstał 2 godziny i 53 minut temu, godzina 23:36 UTC
Prognoza ważna od 06 godzina 00 UTC do 06 godzina 24 UTC
Wiatr 6 kt od południowy zachód
Widzialność: 10 km
Rozproszone chmury na wysokości 5000 ft
Przerywane chmury na wysokości 8000 ft
przelotny w pobliże
Od 06 godzina 0800 UTC
Wiatr 7 kt od północno-północny zachód
Widzialność: 10 km
Rozproszone chmury na wysokości 4000 ft

TAF: KLNS 052336Z 0600/0624 22006KT P6SM VCSH SCT050 BKN080 FM060800 34007KT P6SM SCT040

Obserwacja i prognoza pogody dla ponad 4000 lotnisk (raport METAR i TAF).

Dostępne stacje oznaczono żółtymi i czerwonymi punktami na mapie.

Najedź kursorem aby zobaczyć nazwę stacji.

Kliknij aby zobaczyć obserwacje i prognozy pogody.

Aby zmienić mapę: kliknij na zielony przycisk z czarnym krzyżykiem, aby powiększyć; na zielony przycisk z myślnikiem, aby pomniejszyć; na zielone strzałki, aby przejść do map sąsiednich.


METAR-TAF: